Seaboard, Alabama
Current Conditions -  °F | °C
As of 2:56 PM on Tuesday 25 Nov 2014 (Local Time) from KMOB Reporting Station
Broken Clouds Broken Clouds  
Wind Chill: 57°   Ceiling: 10000
Heat Index: 57°   Visibility: 10mi
Dew Point: 30°   Wind: 12mph
Humidity: 36%   Direction: 340°NNW
Pressure: 30.08"   Gusts: NA
Location:  31.1944°N, 88.2946°W
Report Text: KMOB 252056Z 34010KT 10SM BKN100 14/M01 A3008 RMK AO2 PRESRR SLP185 T01391011 55006
Loading
Personal Weather Stations






























Interactive Weather Map New forecast layout! Learn more

10-Day Weather Forecast

Advertisements
Track Severe Weather on mobile